sensor_id;sensor_type;location;lat;lon;timestamp;P1;durP1;ratioP1;P2;durP2;ratioP2
7659;SDS011;3872;47.902;8.162;2023-04-25T00:00:14;6.30;;;2.07;;
7659;SDS011;3872;47.902;8.162;2023-04-25T00:02:40;5.13;;;2.10;;
7659;SDS011;3872;47.902;8.162;2023-04-25T00:05:09;5.27;;;2.00;;
7659;SDS011;3872;47.902;8.162;2023-04-25T00:07:36;7.93;;;2.87;;
7659;SDS011;3872;47.902;8.162;2023-04-25T00:10:03;5.67;;;2.20;;
7659;SDS011;3872;47.902;8.162;2023-04-25T00:12:31;4.93;;;2.37;;
7659;SDS011;3872;47.902;8.162;2023-04-25T00:14:58;6.13;;;2.03;;
7659;SDS011;3872;47.902;8.162;2023-04-25T00:17:25;4.73;;;2.40;;
7659;SDS011;3872;47.902;8.162;2023-04-25T00:19:51;4.20;;;1.90;;
7659;SDS011;3872;47.902;8.162;2023-04-25T00:22:18;5.77;;;1.70;;
7659;SDS011;3872;47.902;8.162;2023-04-25T00:24:44;5.90;;;2.40;;
7659;SDS011;3872;47.902;8.162;2023-04-25T00:27:11;5.07;;;2.43;;
7659;SDS011;3872;47.902;8.162;2023-04-25T00:29:39;8.00;;;2.33;;
7659;SDS011;3872;47.902;8.162;2023-04-25T00:32:05;5.17;;;1.87;;
7659;SDS011;3872;47.902;8.162;2023-04-25T00:34:32;5.10;;;2.77;;
7659;SDS011;3872;47.902;8.162;2023-04-25T00:36:59;8.27;;;2.77;;
7659;SDS011;3872;47.902;8.162;2023-04-25T00:39:27;9.23;;;2.10;;
7659;SDS011;3872;47.902;8.162;2023-04-25T00:41:54;4.47;;;2.00;;
7659;SDS011;3872;47.902;8.162;2023-04-25T00:44:20;5.03;;;2.07;;
7659;SDS011;3872;47.902;8.162;2023-04-25T00:46:49;5.43;;;2.23;;
7659;SDS011;3872;47.902;8.162;2023-04-25T00:49:16;4.03;;;1.83;;
7659;SDS011;3872;47.902;8.162;2023-04-25T00:51:43;8.50;;;3.03;;
7659;SDS011;3872;47.902;8.162;2023-04-25T00:54:10;8.03;;;2.10;;
7659;SDS011;3872;47.902;8.162;2023-04-25T00:56:40;4.20;;;1.90;;
7659;SDS011;3872;47.902;8.162;2023-04-25T00:59:06;5.43;;;2.10;;
7659;SDS011;3872;47.902;8.162;2023-04-25T01:01:35;5.67;;;2.17;;
7659;SDS011;3872;47.902;8.162;2023-04-25T01:04:04;7.27;;;2.23;;
7659;SDS011;3872;47.902;8.162;2023-04-25T01:06:30;6.77;;;2.10;;
7659;SDS011;3872;47.902;8.162;2023-04-25T01:08:58;10.57;;;2.27;;
7659;SDS011;3872;47.902;8.162;2023-04-25T01:11:25;7.07;;;2.30;;
7659;SDS011;3872;47.902;8.162;2023-04-25T01:13:51;4.97;;;2.30;;
7659;SDS011;3872;47.902;8.162;2023-04-25T01:16:18;4.80;;;2.20;;
7659;SDS011;3872;47.902;8.162;2023-04-25T01:18:45;4.93;;;2.00;;
7659;SDS011;3872;47.902;8.162;2023-04-25T01:21:14;4.60;;;1.87;;
7659;SDS011;3872;47.902;8.162;2023-04-25T01:23:40;5.07;;;1.77;;
7659;SDS011;3872;47.902;8.162;2023-04-25T01:26:09;4.70;;;1.93;;
7659;SDS011;3872;47.902;8.162;2023-04-25T01:28:36;4.40;;;1.70;;
7659;SDS011;3872;47.902;8.162;2023-04-25T01:31:06;4.40;;;1.87;;
7659;SDS011;3872;47.902;8.162;2023-04-25T01:33:32;9.10;;;1.97;;
7659;SDS011;3872;47.902;8.162;2023-04-25T01:35:59;7.73;;;2.10;;
7659;SDS011;3872;47.902;8.162;2023-04-25T01:38:28;6.30;;;2.13;;
7659;SDS011;3872;47.902;8.162;2023-04-25T01:40:54;12.50;;;2.13;;
7659;SDS011;3872;47.902;8.162;2023-04-25T01:43:22;4.60;;;2.33;;
7659;SDS011;3872;47.902;8.162;2023-04-25T01:45:49;4.87;;;2.13;;
7659;SDS011;3872;47.902;8.162;2023-04-25T01:48:16;5.53;;;2.20;;
7659;SDS011;3872;47.902;8.162;2023-04-25T01:50:45;4.43;;;1.50;;
7659;SDS011;3872;47.902;8.162;2023-04-25T01:53:12;5.63;;;2.30;;
7659;SDS011;3872;47.902;8.162;2023-04-25T01:55:41;5.60;;;2.17;;
7659;SDS011;3872;47.902;8.162;2023-04-25T01:58:11;4.67;;;2.10;;
7659;SDS011;3872;47.902;8.162;2023-04-25T02:00:55;5.37;;;2.50;;
7659;SDS011;3872;47.902;8.162;2023-04-25T02:03:25;5.93;;;2.60;;
7659;SDS011;3872;47.902;8.162;2023-04-25T02:05:53;4.63;;;2.10;;
7659;SDS011;3872;47.902;8.162;2023-04-25T02:08:20;4.97;;;2.63;;
7659;SDS011;3872;47.902;8.162;2023-04-25T02:10:49;10.00;;;2.90;;
7659;SDS011;3872;47.902;8.162;2023-04-25T02:13:18;4.50;;;2.03;;
7659;SDS011;3872;47.902;8.162;2023-04-25T02:16:05;6.13;;;2.47;;
7659;SDS011;3872;47.902;8.162;2023-04-25T02:18:32;7.00;;;3.00;;
7659;SDS011;3872;47.902;8.162;2023-04-25T02:20:58;5.50;;;2.10;;
7659;SDS011;3872;47.902;8.162;2023-04-25T02:23:26;5.20;;;2.93;;
7659;SDS011;3872;47.902;8.162;2023-04-25T02:25:54;5.20;;;2.40;;
7659;SDS011;3872;47.902;8.162;2023-04-25T02:28:23;6.40;;;2.83;;
7659;SDS011;3872;47.902;8.162;2023-04-25T02:30:49;7.30;;;2.53;;
7659;SDS011;3872;47.902;8.162;2023-04-25T02:33:16;6.97;;;2.60;;
7659;SDS011;3872;47.902;8.162;2023-04-25T02:35:42;9.30;;;3.20;;
7659;SDS011;3872;47.902;8.162;2023-04-25T02:38:09;9.03;;;2.50;;
7659;SDS011;3872;47.902;8.162;2023-04-25T02:40:35;13.70;;;3.73;;
7659;SDS011;3872;47.902;8.162;2023-04-25T02:43:03;4.77;;;2.60;;
7659;SDS011;3872;47.902;8.162;2023-04-25T02:45:30;8.53;;;2.80;;
7659;SDS011;3872;47.902;8.162;2023-04-25T02:47:56;5.60;;;2.70;;
7659;SDS011;3872;47.902;8.162;2023-04-25T02:50:23;6.50;;;2.97;;
7659;SDS011;3872;47.902;8.162;2023-04-25T02:52:49;8.40;;;3.30;;
7659;SDS011;3872;47.902;8.162;2023-04-25T02:55:21;6.60;;;2.47;;
7659;SDS011;3872;47.902;8.162;2023-04-25T02:57:48;10.03;;;2.60;;
7659;SDS011;3872;47.902;8.162;2023-04-25T03:00:27;6.97;;;2.73;;
7659;SDS011;3872;47.902;8.162;2023-04-25T03:02:54;4.80;;;2.27;;
7659;SDS011;3872;47.902;8.162;2023-04-25T03:05:20;7.50;;;3.60;;
7659;SDS011;3872;47.902;8.162;2023-04-25T03:07:47;5.70;;;2.97;;
7659;SDS011;3872;47.902;8.162;2023-04-25T03:10:15;4.97;;;2.37;;
7659;SDS011;3872;47.902;8.162;2023-04-25T03:12:41;4.67;;;2.00;;
7659;SDS011;3872;47.902;8.162;2023-04-25T03:15:09;4.67;;;2.33;;
7659;SDS011;3872;47.902;8.162;2023-04-25T03:17:37;5.40;;;2.90;;
7659;SDS011;3872;47.902;8.162;2023-04-25T03:20:04;4.57;;;2.57;;
7659;SDS011;3872;47.902;8.162;2023-04-25T03:22:33;6.83;;;2.90;;
7659;SDS011;3872;47.902;8.162;2023-04-25T03:25:01;5.17;;;2.80;;
7659;SDS011;3872;47.902;8.162;2023-04-25T03:27:28;5.23;;;2.63;;
7659;SDS011;3872;47.902;8.162;2023-04-25T03:29:54;9.77;;;3.10;;
7659;SDS011;3872;47.902;8.162;2023-04-25T03:32:21;5.87;;;3.17;;
7659;SDS011;3872;47.902;8.162;2023-04-25T03:34:49;5.80;;;2.90;;
7659;SDS011;3872;47.902;8.162;2023-04-25T03:37:15;12.53;;;3.13;;
7659;SDS011;3872;47.902;8.162;2023-04-25T03:39:42;5.27;;;2.90;;
7659;SDS011;3872;47.902;8.162;2023-04-25T03:42:09;5.80;;;2.47;;
7659;SDS011;3872;47.902;8.162;2023-04-25T03:44:36;7.83;;;2.70;;
7659;SDS011;3872;47.902;8.162;2023-04-25T03:47:02;17.87;;;8.40;;
7659;SDS011;3872;47.902;8.162;2023-04-25T03:49:29;8.13;;;2.90;;
7659;SDS011;3872;47.902;8.162;2023-04-25T03:52:00;7.37;;;3.00;;
7659;SDS011;3872;47.902;8.162;2023-04-25T03:54:32;6.70;;;2.30;;
7659;SDS011;3872;47.902;8.162;2023-04-25T03:57:19;6.27;;;2.90;;
7659;SDS011;3872;47.902;8.162;2023-04-25T03:59:45;15.20;;;3.00;;
7659;SDS011;3872;47.902;8.162;2023-04-25T04:02:13;8.93;;;2.77;;
7659;SDS011;3872;47.902;8.162;2023-04-25T04:04:40;8.20;;;3.53;;
7659;SDS011;3872;47.902;8.162;2023-04-25T04:07:10;5.63;;;2.93;;
7659;SDS011;3872;47.902;8.162;2023-04-25T04:09:39;5.80;;;3.00;;
7659;SDS011;3872;47.902;8.162;2023-04-25T04:12:11;5.00;;;2.53;;
7659;SDS011;3872;47.902;8.162;2023-04-25T04:14:39;7.70;;;3.27;;
7659;SDS011;3872;47.902;8.162;2023-04-25T04:17:06;7.33;;;3.07;;
7659;SDS011;3872;47.902;8.162;2023-04-25T04:19:33;8.40;;;2.87;;
7659;SDS011;3872;47.902;8.162;2023-04-25T04:22:08;8.70;;;3.77;;
7659;SDS011;3872;47.902;8.162;2023-04-25T04:24:36;9.23;;;3.17;;
7659;SDS011;3872;47.902;8.162;2023-04-25T04:27:05;50.57;;;4.17;;
7659;SDS011;3872;47.902;8.162;2023-04-25T04:29:50;11.13;;;4.50;;
7659;SDS011;3872;47.902;8.162;2023-04-25T04:32:24;37.17;;;5.33;;
7659;SDS011;3872;47.902;8.162;2023-04-25T04:34:53;38.23;;;4.83;;
7659;SDS011;3872;47.902;8.162;2023-04-25T04:37:20;6.87;;;3.60;;
7659;SDS011;3872;47.902;8.162;2023-04-25T04:39:49;10.83;;;4.20;;
7659;SDS011;3872;47.902;8.162;2023-04-25T04:42:28;7.33;;;3.20;;
7659;SDS011;3872;47.902;8.162;2023-04-25T04:45:21;6.03;;;3.00;;
7659;SDS011;3872;47.902;8.162;2023-04-25T04:48:11;20.97;;;3.70;;
7659;SDS011;3872;47.902;8.162;2023-04-25T04:50:58;13.57;;;4.13;;
7659;SDS011;3872;47.902;8.162;2023-04-25T04:53:44;18.03;;;3.70;;
7659;SDS011;3872;47.902;8.162;2023-04-25T04:56:21;7.10;;;3.33;;
7659;SDS011;3872;47.902;8.162;2023-04-25T04:58:54;6.80;;;3.50;;
7659;SDS011;3872;47.902;8.162;2023-04-25T05:01:27;8.87;;;3.67;;
7659;SDS011;3872;47.902;8.162;2023-04-25T05:04:00;5.83;;;3.43;;
7659;SDS011;3872;47.902;8.162;2023-04-25T05:06:48;7.53;;;3.70;;
7659;SDS011;3872;47.902;8.162;2023-04-25T05:09:35;9.17;;;3.60;;
7659;SDS011;3872;47.902;8.162;2023-04-25T05:12:03;17.93;;;4.50;;
7659;SDS011;3872;47.902;8.162;2023-04-25T05:14:54;8.27;;;4.43;;
7659;SDS011;3872;47.902;8.162;2023-04-25T05:17:35;6.83;;;3.93;;
7659;SDS011;3872;47.902;8.162;2023-04-25T05:20:11;6.70;;;3.40;;
7659;SDS011;3872;47.902;8.162;2023-04-25T05:23:05;6.80;;;3.93;;
7659;SDS011;3872;47.902;8.162;2023-04-25T05:25:58;7.53;;;3.97;;
7659;SDS011;3872;47.902;8.162;2023-04-25T05:28:46;11.20;;;4.37;;
7659;SDS011;3872;47.902;8.162;2023-04-25T05:31:32;8.73;;;4.20;;
7659;SDS011;3872;47.902;8.162;2023-04-25T05:34:03;6.63;;;3.60;;
7659;SDS011;3872;47.902;8.162;2023-04-25T05:36:40;6.77;;;3.40;;
7659;SDS011;3872;47.902;8.162;2023-04-25T05:39:07;31.00;;;11.77;;
7659;SDS011;3872;47.902;8.162;2023-04-25T05:42:06;30.07;;;10.53;;
7659;SDS011;3872;47.902;8.162;2023-04-25T05:44:46;12.40;;;5.93;;
7659;SDS011;3872;47.902;8.162;2023-04-25T05:47:31;11.97;;;6.00;;
7659;SDS011;3872;47.902;8.162;2023-04-25T05:50:18;7.77;;;4.33;;
7659;SDS011;3872;47.902;8.162;2023-04-25T05:53:07;11.00;;;4.20;;
7659;SDS011;3872;47.902;8.162;2023-04-25T05:55:38;7.97;;;4.20;;
7659;SDS011;3872;47.902;8.162;2023-04-25T05:58:25;15.40;;;8.73;;
7659;SDS011;3872;47.902;8.162;2023-04-25T06:00:54;8.53;;;4.60;;
7659;SDS011;3872;47.902;8.162;2023-04-25T06:03:22;8.77;;;4.43;;
7659;SDS011;3872;47.902;8.162;2023-04-25T06:05:49;9.47;;;5.00;;
7659;SDS011;3872;47.902;8.162;2023-04-25T06:08:15;7.23;;;4.20;;
7659;SDS011;3872;47.902;8.162;2023-04-25T06:10:42;9.30;;;4.60;;
7659;SDS011;3872;47.902;8.162;2023-04-25T06:13:09;12.53;;;5.13;;
7659;SDS011;3872;47.902;8.162;2023-04-25T06:15:36;10.50;;;5.10;;
7659;SDS011;3872;47.902;8.162;2023-04-25T06:18:04;7.07;;;3.63;;
7659;SDS011;3872;47.902;8.162;2023-04-25T06:20:30;8.20;;;4.47;;
7659;SDS011;3872;47.902;8.162;2023-04-25T06:22:58;9.70;;;4.87;;
7659;SDS011;3872;47.902;8.162;2023-04-25T06:25:34;7.80;;;4.50;;
7659;SDS011;3872;47.902;8.162;2023-04-25T06:28:01;8.70;;;4.17;;
7659;SDS011;3872;47.902;8.162;2023-04-25T06:30:28;8.20;;;4.00;;
7659;SDS011;3872;47.902;8.162;2023-04-25T06:33:01;8.30;;;3.60;;
7659;SDS011;3872;47.902;8.162;2023-04-25T06:35:29;7.20;;;3.80;;
7659;SDS011;3872;47.902;8.162;2023-04-25T06:37:56;7.07;;;3.60;;
7659;SDS011;3872;47.902;8.162;2023-04-25T06:40:23;8.67;;;3.93;;
7659;SDS011;3872;47.902;8.162;2023-04-25T06:42:50;5.30;;;3.07;;
7659;SDS011;3872;47.902;8.162;2023-04-25T06:45:32;6.10;;;3.20;;
7659;SDS011;3872;47.902;8.162;2023-04-25T06:47:59;6.87;;;3.57;;
7659;SDS011;3872;47.902;8.162;2023-04-25T06:50:27;8.50;;;3.40;;
7659;SDS011;3872;47.902;8.162;2023-04-25T06:52:55;6.40;;;3.50;;
7659;SDS011;3872;47.902;8.162;2023-04-25T06:55:22;8.53;;;4.40;;
7659;SDS011;3872;47.902;8.162;2023-04-25T06:58:00;7.00;;;4.03;;
7659;SDS011;3872;47.902;8.162;2023-04-25T07:00:46;9.67;;;3.63;;
7659;SDS011;3872;47.902;8.162;2023-04-25T07:03:12;7.97;;;3.83;;
7659;SDS011;3872;47.902;8.162;2023-04-25T07:05:39;5.60;;;3.10;;
7659;SDS011;3872;47.902;8.162;2023-04-25T07:08:07;6.20;;;3.30;;
7659;SDS011;3872;47.902;8.162;2023-04-25T07:10:33;12.20;;;2.97;;
7659;SDS011;3872;47.902;8.162;2023-04-25T07:13:01;11.47;;;3.67;;
7659;SDS011;3872;47.902;8.162;2023-04-25T07:15:29;6.70;;;3.20;;
7659;SDS011;3872;47.902;8.162;2023-04-25T07:17:57;9.80;;;3.60;;
7659;SDS011;3872;47.902;8.162;2023-04-25T07:20:24;8.40;;;3.10;;
7659;SDS011;3872;47.902;8.162;2023-04-25T07:22:52;6.83;;;3.63;;
7659;SDS011;3872;47.902;8.162;2023-04-25T07:25:20;9.53;;;3.77;;
7659;SDS011;3872;47.902;8.162;2023-04-25T07:27:48;6.50;;;3.60;;
7659;SDS011;3872;47.902;8.162;2023-04-25T07:30:17;6.40;;;4.13;;
7659;SDS011;3872;47.902;8.162;2023-04-25T07:32:43;6.80;;;3.17;;
7659;SDS011;3872;47.902;8.162;2023-04-25T07:35:10;4.77;;;2.50;;
7659;SDS011;3872;47.902;8.162;2023-04-25T07:37:37;5.97;;;2.90;;
7659;SDS011;3872;47.902;8.162;2023-04-25T07:40:24;4.60;;;2.50;;
7659;SDS011;3872;47.902;8.162;2023-04-25T07:43:01;5.17;;;2.37;;
7659;SDS011;3872;47.902;8.162;2023-04-25T07:45:51;5.23;;;2.37;;
7659;SDS011;3872;47.902;8.162;2023-04-25T07:48:18;4.73;;;1.90;;
7659;SDS011;3872;47.902;8.162;2023-04-25T07:50:45;5.50;;;1.63;;
7659;SDS011;3872;47.902;8.162;2023-04-25T07:53:13;3.97;;;1.80;;
7659;SDS011;3872;47.902;8.162;2023-04-25T07:55:48;4.73;;;2.03;;
7659;SDS011;3872;47.902;8.162;2023-04-25T07:58:17;3.90;;;1.50;;
7659;SDS011;3872;47.902;8.162;2023-04-25T08:00:47;4.27;;;1.57;;
7659;SDS011;3872;47.902;8.162;2023-04-25T08:03:32;4.03;;;1.60;;
7659;SDS011;3872;47.902;8.162;2023-04-25T08:06:00;4.60;;;2.00;;
7659;SDS011;3872;47.902;8.162;2023-04-25T08:08:30;3.80;;;1.40;;
7659;SDS011;3872;47.902;8.162;2023-04-25T08:10:58;4.37;;;1.50;;
7659;SDS011;3872;47.902;8.162;2023-04-25T08:13:25;3.60;;;1.30;;
7659;SDS011;3872;47.902;8.162;2023-04-25T08:15:52;3.30;;;0.80;;
7659;SDS011;3872;47.902;8.162;2023-04-25T08:18:19;3.30;;;0.80;;
7659;SDS011;3872;47.902;8.162;2023-04-25T08:20:48;3.50;;;1.00;;
7659;SDS011;3872;47.902;8.162;2023-04-25T08:23:15;3.57;;;0.80;;
7659;SDS011;3872;47.902;8.162;2023-04-25T08:25:53;3.80;;;1.00;;
7659;SDS011;3872;47.902;8.162;2023-04-25T08:28:26;3.50;;;0.90;;
7659;SDS011;3872;47.902;8.162;2023-04-25T08:30:52;3.30;;;0.70;;
7659;SDS011;3872;47.902;8.162;2023-04-25T08:33:19;3.37;;;0.80;;
7659;SDS011;3872;47.902;8.162;2023-04-25T08:35:58;3.30;;;0.70;;
7659;SDS011;3872;47.902;8.162;2023-04-25T08:38:26;3.30;;;0.70;;
7659;SDS011;3872;47.902;8.162;2023-04-25T08:40:53;3.40;;;0.60;;
7659;SDS011;3872;47.902;8.162;2023-04-25T08:43:21;3.30;;;0.70;;
7659;SDS011;3872;47.902;8.162;2023-04-25T08:45:51;3.27;;;0.63;;
7659;SDS011;3872;47.902;8.162;2023-04-25T08:48:31;3.30;;;0.70;;
7659;SDS011;3872;47.902;8.162;2023-04-25T08:50:58;3.37;;;0.80;;
7659;SDS011;3872;47.902;8.162;2023-04-25T08:53:29;3.40;;;0.70;;
7659;SDS011;3872;47.902;8.162;2023-04-25T08:56:00;3.30;;;0.70;;
7659;SDS011;3872;47.902;8.162;2023-04-25T08:58:28;3.40;;;0.90;;
7659;SDS011;3872;47.902;8.162;2023-04-25T09:00:56;3.70;;;0.87;;
7659;SDS011;3872;47.902;8.162;2023-04-25T09:03:25;3.33;;;0.70;;
7659;SDS011;3872;47.902;8.162;2023-04-25T09:05:52;3.43;;;0.80;;
7659;SDS011;3872;47.902;8.162;2023-04-25T09:08:21;3.40;;;0.97;;
7659;SDS011;3872;47.902;8.162;2023-04-25T09:10:47;3.40;;;1.00;;
7659;SDS011;3872;47.902;8.162;2023-04-25T09:13:14;3.30;;;0.80;;
7659;SDS011;3872;47.902;8.162;2023-04-25T09:16:09;3.90;;;1.20;;
7659;SDS011;3872;47.902;8.162;2023-04-25T09:18:54;3.53;;;1.17;;
7659;SDS011;3872;47.902;8.162;2023-04-25T09:21:22;4.43;;;1.10;;
7659;SDS011;3872;47.902;8.162;2023-04-25T09:23:49;3.70;;;1.17;;
7659;SDS011;3872;47.902;8.162;2023-04-25T09:26:17;3.90;;;1.00;;
7659;SDS011;3872;47.902;8.162;2023-04-25T09:28:45;5.67;;;1.30;;
7659;SDS011;3872;47.902;8.162;2023-04-25T09:31:22;3.70;;;1.10;;
7659;SDS011;3872;47.902;8.162;2023-04-25T09:33:50;11.90;;;1.40;;
7659;SDS011;3872;47.902;8.162;2023-04-25T09:36:25;3.70;;;1.37;;
7659;SDS011;3872;47.902;8.162;2023-04-25T09:39:20;3.93;;;1.20;;
7659;SDS011;3872;47.902;8.162;2023-04-25T09:41:55;3.53;;;1.00;;
7659;SDS011;3872;47.902;8.162;2023-04-25T09:44:23;3.60;;;1.00;;
7659;SDS011;3872;47.902;8.162;2023-04-25T09:46:52;3.70;;;1.33;;
7659;SDS011;3872;47.902;8.162;2023-04-25T09:49:22;6.53;;;1.60;;
7659;SDS011;3872;47.902;8.162;2023-04-25T09:52:04;3.70;;;1.20;;
7659;SDS011;3872;47.902;8.162;2023-04-25T09:54:38;3.60;;;1.27;;
7659;SDS011;3872;47.902;8.162;2023-04-25T09:57:12;4.03;;;1.50;;
7659;SDS011;3872;47.902;8.162;2023-04-25T09:59:42;4.13;;;1.30;;
7659;SDS011;3872;47.902;8.162;2023-04-25T10:02:12;6.03;;;1.47;;
7659;SDS011;3872;47.902;8.162;2023-04-25T10:04:40;4.50;;;1.10;;
7659;SDS011;3872;47.902;8.162;2023-04-25T10:07:29;3.50;;;1.10;;
7659;SDS011;3872;47.902;8.162;2023-04-25T10:09:59;3.80;;;1.50;;
7659;SDS011;3872;47.902;8.162;2023-04-25T10:12:27;4.20;;;1.33;;
7659;SDS011;3872;47.902;8.162;2023-04-25T10:14:54;3.83;;;1.10;;
7659;SDS011;3872;47.902;8.162;2023-04-25T10:17:22;3.70;;;1.20;;
7659;SDS011;3872;47.902;8.162;2023-04-25T10:19:49;4.90;;;1.20;;
7659;SDS011;3872;47.902;8.162;2023-04-25T10:22:18;3.70;;;1.30;;
7659;SDS011;3872;47.902;8.162;2023-04-25T10:24:49;3.80;;;1.40;;
7659;SDS011;3872;47.902;8.162;2023-04-25T10:27:17;4.67;;;1.43;;
7659;SDS011;3872;47.902;8.162;2023-04-25T10:29:44;3.80;;;1.13;;
7659;SDS011;3872;47.902;8.162;2023-04-25T10:32:11;4.23;;;1.70;;
7659;SDS011;3872;47.902;8.162;2023-04-25T10:34:39;4.43;;;1.77;;
7659;SDS011;3872;47.902;8.162;2023-04-25T10:37:08;4.60;;;2.00;;
7659;SDS011;3872;47.902;8.162;2023-04-25T10:39:37;5.23;;;1.53;;
7659;SDS011;3872;47.902;8.162;2023-04-25T10:42:05;4.10;;;1.63;;
7659;SDS011;3872;47.902;8.162;2023-04-25T10:44:32;4.93;;;2.00;;
7659;SDS011;3872;47.902;8.162;2023-04-25T10:47:01;4.80;;;2.10;;
7659;SDS011;3872;47.902;8.162;2023-04-25T10:49:31;5.17;;;1.90;;
7659;SDS011;3872;47.902;8.162;2023-04-25T10:54:51;6.30;;;1.80;;
7659;SDS011;3872;47.902;8.162;2023-04-25T10:57:28;3.73;;;1.43;;
7659;SDS011;3872;47.902;8.162;2023-04-25T11:00:00;4.00;;;1.60;;
7659;SDS011;3872;47.902;8.162;2023-04-25T11:02:31;4.10;;;1.80;;
7659;SDS011;3872;47.902;8.162;2023-04-25T11:04:57;3.80;;;1.40;;
7659;SDS011;3872;47.902;8.162;2023-04-25T11:07:28;4.80;;;1.77;;
7659;SDS011;3872;47.902;8.162;2023-04-25T11:10:02;4.07;;;1.57;;
7659;SDS011;3872;47.902;8.162;2023-04-25T11:12:30;3.70;;;1.33;;
7659;SDS011;3872;47.902;8.162;2023-04-25T11:15:01;4.47;;;1.50;;
7659;SDS011;3872;47.902;8.162;2023-04-25T11:17:28;4.33;;;1.80;;
7659;SDS011;3872;47.902;8.162;2023-04-25T11:19:55;6.40;;;1.53;;
7659;SDS011;3872;47.902;8.162;2023-04-25T11:22:22;3.77;;;1.53;;
7659;SDS011;3872;47.902;8.162;2023-04-25T11:24:51;4.40;;;1.57;;
7659;SDS011;3872;47.902;8.162;2023-04-25T11:27:17;5.50;;;1.83;;
7659;SDS011;3872;47.902;8.162;2023-04-25T11:29:44;5.50;;;1.83;;
7659;SDS011;3872;47.902;8.162;2023-04-25T11:32:13;4.20;;;1.60;;
7659;SDS011;3872;47.902;8.162;2023-04-25T11:34:42;4.07;;;1.30;;
7659;SDS011;3872;47.902;8.162;2023-04-25T11:37:10;4.20;;;1.57;;
7659;SDS011;3872;47.902;8.162;2023-04-25T11:39:37;3.70;;;1.23;;
7659;SDS011;3872;47.902;8.162;2023-04-25T11:42:06;3.70;;;1.67;;
7659;SDS011;3872;47.902;8.162;2023-04-25T11:44:32;6.00;;;1.70;;
7659;SDS011;3872;47.902;8.162;2023-04-25T11:46:59;5.33;;;2.00;;
7659;SDS011;3872;47.902;8.162;2023-04-25T11:49:29;4.03;;;1.53;;
7659;SDS011;3872;47.902;8.162;2023-04-25T11:51:56;6.77;;;2.23;;
7659;SDS011;3872;47.902;8.162;2023-04-25T11:54:23;6.30;;;1.60;;
7659;SDS011;3872;47.902;8.162;2023-04-25T11:56:49;4.43;;;2.03;;
7659;SDS011;3872;47.902;8.162;2023-04-25T11:59:17;4.20;;;1.93;;
7659;SDS011;3872;47.902;8.162;2023-04-25T12:01:50;5.60;;;2.50;;
7659;SDS011;3872;47.902;8.162;2023-04-25T12:04:17;6.50;;;2.23;;
7659;SDS011;3872;47.902;8.162;2023-04-25T12:06:45;13.03;;;2.57;;
7659;SDS011;3872;47.902;8.162;2023-04-25T12:09:14;4.50;;;1.93;;
7659;SDS011;3872;47.902;8.162;2023-04-25T12:11:43;4.30;;;1.77;;
7659;SDS011;3872;47.902;8.162;2023-04-25T12:14:10;7.77;;;2.30;;
7659;SDS011;3872;47.902;8.162;2023-04-25T12:16:43;9.60;;;2.80;;
7659;SDS011;3872;47.902;8.162;2023-04-25T12:19:13;5.57;;;2.27;;
7659;SDS011;3872;47.902;8.162;2023-04-25T12:21:39;4.87;;;2.13;;
7659;SDS011;3872;47.902;8.162;2023-04-25T12:24:09;4.37;;;2.10;;
7659;SDS011;3872;47.902;8.162;2023-04-25T12:26:50;8.63;;;2.50;;
7659;SDS011;3872;47.902;8.162;2023-04-25T12:29:18;4.93;;;2.20;;
7659;SDS011;3872;47.902;8.162;2023-04-25T12:31:47;5.30;;;2.17;;
7659;SDS011;3872;47.902;8.162;2023-04-25T12:34:15;4.60;;;2.00;;
7659;SDS011;3872;47.902;8.162;2023-04-25T12:36:41;6.63;;;2.50;;
7659;SDS011;3872;47.902;8.162;2023-04-25T12:39:08;5.90;;;2.53;;
7659;SDS011;3872;47.902;8.162;2023-04-25T12:41:35;7.93;;;1.97;;
7659;SDS011;3872;47.902;8.162;2023-04-25T12:44:02;4.67;;;1.80;;
7659;SDS011;3872;47.902;8.162;2023-04-25T12:46:29;4.23;;;1.80;;
7659;SDS011;3872;47.902;8.162;2023-04-25T12:48:57;3.80;;;1.33;;
7659;SDS011;3872;47.902;8.162;2023-04-25T12:51:23;5.83;;;1.60;;
7659;SDS011;3872;47.902;8.162;2023-04-25T12:53:51;5.20;;;1.30;;
7659;SDS011;3872;47.902;8.162;2023-04-25T12:56:18;3.90;;;1.27;;
7659;SDS011;3872;47.902;8.162;2023-04-25T12:58:44;3.93;;;1.50;;
7659;SDS011;3872;47.902;8.162;2023-04-25T13:01:11;3.60;;;1.20;;
7659;SDS011;3872;47.902;8.162;2023-04-25T13:03:39;3.80;;;1.20;;
7659;SDS011;3872;47.902;8.162;2023-04-25T13:06:07;3.67;;;1.20;;
7659;SDS011;3872;47.902;8.162;2023-04-25T13:08:33;3.73;;;1.20;;
7659;SDS011;3872;47.902;8.162;2023-04-25T13:11:01;3.50;;;1.10;;
7659;SDS011;3872;47.902;8.162;2023-04-25T13:13:28;3.60;;;0.90;;
7659;SDS011;3872;47.902;8.162;2023-04-25T13:15:56;4.17;;;1.43;;
7659;SDS011;3872;47.902;8.162;2023-04-25T13:18:23;4.10;;;1.30;;
7659;SDS011;3872;47.902;8.162;2023-04-25T13:20:51;4.30;;;1.13;;
7659;SDS011;3872;47.902;8.162;2023-04-25T13:23:19;5.70;;;1.23;;
7659;SDS011;3872;47.902;8.162;2023-04-25T13:25:46;4.10;;;1.20;;
7659;SDS011;3872;47.902;8.162;2023-04-25T13:28:13;3.87;;;1.30;;
7659;SDS011;3872;47.902;8.162;2023-04-25T13:30:40;3.50;;;1.00;;
7659;SDS011;3872;47.902;8.162;2023-04-25T13:33:06;3.60;;;1.07;;
7659;SDS011;3872;47.902;8.162;2023-04-25T13:35:34;4.73;;;1.03;;
7659;SDS011;3872;47.902;8.162;2023-04-25T13:38:01;7.00;;;1.10;;
7659;SDS011;3872;47.902;8.162;2023-04-25T13:40:29;4.73;;;1.20;;
7659;SDS011;3872;47.902;8.162;2023-04-25T13:42:57;3.60;;;1.20;;
7659;SDS011;3872;47.902;8.162;2023-04-25T13:45:24;5.40;;;1.30;;
7659;SDS011;3872;47.902;8.162;2023-04-25T13:47:50;3.80;;;1.00;;
7659;SDS011;3872;47.902;8.162;2023-04-25T13:50:17;3.70;;;1.30;;
7659;SDS011;3872;47.902;8.162;2023-04-25T13:52:44;3.50;;;1.00;;
7659;SDS011;3872;47.902;8.162;2023-04-25T13:55:11;5.40;;;1.17;;
7659;SDS011;3872;47.902;8.162;2023-04-25T13:57:39;4.90;;;1.07;;
7659;SDS011;3872;47.902;8.162;2023-04-25T14:00:06;3.87;;;1.00;;
7659;SDS011;3872;47.902;8.162;2023-04-25T14:02:34;3.60;;;0.80;;
7659;SDS011;3872;47.902;8.162;2023-04-25T14:05:00;4.43;;;0.97;;
7659;SDS011;3872;47.902;8.162;2023-04-25T14:07:27;3.93;;;0.93;;
7659;SDS011;3872;47.902;8.162;2023-04-25T14:09:53;3.83;;;1.00;;
7659;SDS011;3872;47.902;8.162;2023-04-25T14:12:22;3.47;;;0.80;;
7659;SDS011;3872;47.902;8.162;2023-04-25T14:14:50;4.17;;;0.93;;
7659;SDS011;3872;47.902;8.162;2023-04-25T14:17:17;3.50;;;1.00;;
7659;SDS011;3872;47.902;8.162;2023-04-25T14:19:44;3.50;;;1.00;;
7659;SDS011;3872;47.902;8.162;2023-04-25T14:22:13;3.30;;;0.70;;
7659;SDS011;3872;47.902;8.162;2023-04-25T14:24:40;3.40;;;1.00;;
7659;SDS011;3872;47.902;8.162;2023-04-25T14:27:07;3.50;;;1.03;;
7659;SDS011;3872;47.902;8.162;2023-04-25T14:29:33;3.50;;;1.13;;
7659;SDS011;3872;47.902;8.162;2023-04-25T14:32:01;3.30;;;0.70;;
7659;SDS011;3872;47.902;8.162;2023-04-25T14:34:28;18.50;;;6.93;;
7659;SDS011;3872;47.902;8.162;2023-04-25T14:36:55;7.57;;;3.30;;
7659;SDS011;3872;47.902;8.162;2023-04-25T14:39:21;4.00;;;2.00;;
7659;SDS011;3872;47.902;8.162;2023-04-25T14:41:48;8.50;;;5.10;;
7659;SDS011;3872;47.902;8.162;2023-04-25T14:44:14;4.20;;;2.03;;
7659;SDS011;3872;47.902;8.162;2023-04-25T14:46:41;4.50;;;1.40;;
7659;SDS011;3872;47.902;8.162;2023-04-25T14:49:09;3.50;;;0.97;;
7659;SDS011;3872;47.902;8.162;2023-04-25T14:51:35;3.60;;;1.30;;
7659;SDS011;3872;47.902;8.162;2023-04-25T14:54:02;6.23;;;1.30;;
7659;SDS011;3872;47.902;8.162;2023-04-25T14:56:28;4.50;;;2.07;;
7659;SDS011;3872;47.902;8.162;2023-04-25T14:58:55;5.60;;;1.90;;
7659;SDS011;3872;47.902;8.162;2023-04-25T15:01:22;4.30;;;2.43;;
7659;SDS011;3872;47.902;8.162;2023-04-25T15:03:48;4.40;;;1.80;;
7659;SDS011;3872;47.902;8.162;2023-04-25T15:06:17;4.67;;;1.10;;
7659;SDS011;3872;47.902;8.162;2023-04-25T15:08:43;4.30;;;2.00;;
7659;SDS011;3872;47.902;8.162;2023-04-25T15:11:10;4.90;;;2.37;;
7659;SDS011;3872;47.902;8.162;2023-04-25T15:13:37;6.63;;;2.77;;
7659;SDS011;3872;47.902;8.162;2023-04-25T15:16:03;5.20;;;2.77;;
7659;SDS011;3872;47.902;8.162;2023-04-25T15:18:31;4.60;;;3.00;;
7659;SDS011;3872;47.902;8.162;2023-04-25T15:20:58;4.93;;;2.07;;
7659;SDS011;3872;47.902;8.162;2023-04-25T15:23:26;3.80;;;1.57;;
7659;SDS011;3872;47.902;8.162;2023-04-25T15:25:52;4.40;;;1.77;;
7659;SDS011;3872;47.902;8.162;2023-04-25T15:28:19;3.40;;;1.00;;
7659;SDS011;3872;47.902;8.162;2023-04-25T15:30:46;3.63;;;1.30;;
7659;SDS011;3872;47.902;8.162;2023-04-25T15:33:13;3.90;;;1.20;;